createdAt,value
2019-01-15T00:03:49.737Z,8.93
2019-01-15T00:08:55.123Z,14.43
2019-01-15T00:14:00.151Z,10.57
2019-01-15T00:19:05.268Z,11.57
2019-01-15T00:24:10.216Z,15.03
2019-01-15T00:29:15.237Z,10.70
2019-01-15T00:34:19.908Z,9.37
2019-01-15T00:39:24.569Z,13.58
2019-01-15T00:44:29.265Z,12.90
2019-01-15T00:49:33.924Z,12.03
2019-01-15T00:54:38.667Z,17.63
2019-01-15T00:59:43.360Z,22.03
2019-01-15T01:04:48.255Z,14.87
2019-01-15T01:09:53.195Z,16.53
2019-01-15T01:14:58.055Z,19.03
2019-01-15T01:20:03.015Z,12.97
2019-01-15T01:25:10.156Z,16.93
2019-01-15T01:30:17.725Z,14.28
2019-01-15T01:35:22.755Z,16.27
2019-01-15T01:40:27.698Z,10.67
2019-01-15T01:45:32.678Z,12.90
2019-01-15T01:50:37.579Z,20.43
2019-01-15T01:55:42.271Z,23.27
2019-01-15T02:00:47.050Z,13.63
2019-01-15T02:05:51.878Z,17.43
2019-01-15T02:10:56.600Z,13.37
2019-01-15T02:16:01.297Z,20.57
2019-01-15T02:21:05.971Z,23.23
2019-01-15T02:26:10.656Z,16.20
2019-01-15T02:31:15.383Z,17.82
2019-01-15T02:36:20.116Z,21.37
2019-01-15T02:41:24.796Z,17.07
2019-01-15T02:46:29.747Z,13.28
2019-01-15T02:51:34.428Z,17.53
2019-01-15T02:56:39.107Z,14.47
2019-01-15T03:01:43.809Z,16.10
2019-01-15T03:06:48.710Z,10.20
2019-01-15T03:11:53.382Z,13.20
2019-01-15T03:16:58.056Z,19.63
2019-01-15T03:22:02.716Z,14.30
2019-01-15T03:27:07.474Z,18.90
2019-01-15T03:32:12.308Z,8.93
2019-01-15T03:37:17.250Z,13.37
2019-01-15T03:42:21.930Z,14.80
2019-01-15T03:47:26.624Z,14.50
2019-01-15T03:52:31.298Z,11.20
2019-01-15T03:57:36.012Z,16.60
2019-01-15T04:02:40.967Z,13.37
2019-01-15T04:07:46.296Z,15.70
2019-01-15T04:12:50.931Z,17.23
2019-01-15T04:17:55.729Z,16.10
2019-01-15T04:23:01.699Z,12.83
2019-01-15T04:28:06.533Z,14.33
2019-01-15T04:33:11.510Z,14.73
2019-01-15T04:38:16.205Z,13.47
2019-01-15T04:43:21.219Z,15.67
2019-01-15T04:48:26.011Z,18.03
2019-01-15T04:53:30.687Z,20.73
2019-01-15T04:58:35.372Z,14.80
2019-01-15T05:03:40.162Z,14.70
2019-01-15T05:08:44.858Z,12.10
2019-01-15T05:13:49.581Z,17.30
2019-01-15T05:18:54.272Z,20.10
2019-01-15T05:23:58.926Z,15.17
2019-01-15T05:29:04.671Z,23.30
2019-01-15T05:34:09.485Z,20.67
2019-01-15T05:39:14.274Z,13.93
2019-01-15T05:44:19.054Z,17.07
2019-01-15T05:49:23.867Z,15.83
2019-01-15T05:54:28.562Z,11.97
2019-01-15T05:59:33.252Z,13.47
2019-01-15T06:04:37.929Z,13.90
2019-01-15T06:09:42.662Z,15.03
2019-01-15T06:14:47.372Z,12.47
2019-01-15T06:19:55.892Z,13.47
2019-01-15T06:25:00.655Z,11.33
2019-01-15T06:30:07.246Z,11.60
2019-01-15T06:35:12.461Z,12.67
2019-01-15T06:40:17.608Z,13.57
2019-01-15T06:45:23.276Z,11.70
2019-01-15T06:50:27.899Z,12.63
2019-01-15T06:55:32.660Z,18.37
2019-01-15T07:00:37.434Z,13.77
2019-01-15T07:05:43.123Z,10.87
2019-01-15T07:10:47.973Z,12.30
2019-01-15T07:15:53.970Z,7.97
2019-01-15T07:20:58.669Z,6.10
2019-01-15T07:26:03.385Z,14.00
2019-01-15T07:31:08.202Z,15.63
2019-01-15T07:36:13.045Z,8.13
2019-01-15T07:41:17.739Z,15.23
2019-01-15T07:46:22.601Z,6.17
2019-01-15T07:51:27.362Z,7.07
2019-01-15T07:56:32.079Z,10.23
2019-01-15T08:01:36.783Z,9.43
2019-01-15T08:06:41.516Z,4.50
2019-01-15T08:11:46.311Z,12.43
2019-01-15T08:16:51.002Z,10.03
2019-01-15T08:21:55.696Z,8.20
2019-01-15T08:27:00.397Z,14.13
2019-01-15T08:32:05.490Z,8.30
2019-01-15T08:37:10.317Z,10.50
2019-01-15T08:42:15.670Z,10.47
2019-01-15T08:47:21.617Z,8.10
2019-01-15T08:52:27.280Z,7.27
2019-01-15T08:57:31.994Z,9.17
2019-01-15T09:02:36.733Z,9.73
2019-01-15T09:07:41.702Z,7.67
2019-01-15T09:12:46.710Z,8.30
2019-01-15T09:17:51.403Z,11.13
2019-01-15T09:22:56.120Z,7.40
2019-01-15T09:28:00.798Z,10.27
2019-01-15T09:33:17.839Z,11.73
2019-01-15T09:38:22.525Z,9.87
2019-01-15T09:43:27.216Z,12.40
2019-01-15T09:48:36.440Z,12.10
2019-01-15T09:53:41.125Z,6.67
2019-01-15T09:58:45.829Z,11.03
2019-01-15T10:03:50.875Z,7.53
2019-01-15T10:08:55.557Z,12.40
2019-01-15T10:14:01.225Z,10.40
2019-01-15T10:19:05.956Z,14.70
2019-01-15T10:24:10.922Z,8.80
2019-01-15T10:29:15.605Z,5.13
2019-01-15T10:34:25.885Z,8.43
2019-01-15T10:39:30.534Z,8.37
2019-01-15T10:44:35.412Z,9.00
2019-01-15T10:49:40.084Z,12.43
2019-01-15T10:54:44.829Z,9.33
2019-01-15T10:59:49.522Z,10.90
2019-01-15T11:04:54.224Z,9.93
2019-01-15T11:09:58.927Z,12.20
2019-01-15T11:15:04.053Z,10.77
2019-01-15T11:20:10.670Z,15.23
2019-01-15T11:25:15.501Z,11.43
2019-01-15T11:30:20.476Z,14.43
2019-01-15T11:35:25.231Z,14.67
2019-01-15T11:40:29.938Z,15.93
2019-01-15T11:45:34.628Z,14.70
2019-01-15T11:50:39.422Z,13.87
2019-01-15T11:55:44.121Z,14.87
2019-01-15T12:01:04.093Z,14.43
2019-01-15T12:06:26.983Z,18.40
2019-01-15T12:12:05.880Z,13.00
2019-01-15T12:17:32.812Z,18.03
2019-01-15T12:22:56.025Z,12.73
2019-01-15T12:28:16.535Z,12.37
2019-01-15T12:33:55.663Z,12.43
2019-01-15T12:39:29.564Z,17.23
2019-01-15T12:44:53.414Z,11.77
2019-01-15T12:50:06.849Z,15.43
2019-01-15T12:55:41.175Z,11.87
2019-01-15T13:01:05.289Z,12.87
2019-01-15T13:06:32.483Z,14.63
2019-01-15T13:12:02.578Z,16.27
2019-01-15T13:17:27.903Z,11.90
2019-01-15T13:22:50.666Z,15.13
2019-01-15T13:28:19.897Z,14.70
2019-01-15T13:33:36.863Z,14.90
2019-01-15T13:39:01.853Z,17.20
2019-01-15T13:44:31.511Z,15.60
2019-01-15T13:49:59.669Z,18.17
2019-01-15T13:55:24.025Z,19.77
2019-01-15T14:00:54.175Z,18.80
2019-01-15T14:06:28.660Z,20.37
2019-01-15T14:11:51.894Z,21.83
2019-01-15T14:17:04.404Z,22.80
2019-01-15T14:22:43.510Z,19.27
2019-01-15T14:28:22.732Z,15.87
2019-01-15T14:34:04.948Z,18.97
2019-01-15T14:39:29.778Z,18.23
2019-01-15T14:45:02.849Z,20.80
2019-01-15T14:50:31.699Z,17.90
2019-01-15T14:55:54.286Z,18.37
2019-01-15T15:01:16.650Z,18.97
2019-01-15T15:06:39.088Z,15.63
2019-01-15T15:12:01.855Z,17.87
2019-01-15T15:17:37.810Z,19.70
2019-01-15T15:23:07.746Z,22.67
2019-01-15T15:28:49.669Z,22.33
2019-01-15T15:34:22.683Z,21.73
2019-01-15T15:39:49.280Z,16.50
2019-01-15T15:45:22.636Z,25.77
2019-01-15T15:50:53.555Z,27.20
2019-01-15T15:56:08.259Z,24.70
2019-01-15T16:01:32.128Z,30.77
2019-01-15T16:06:58.687Z,27.73
2019-01-15T16:12:22.183Z,26.47
2019-01-15T16:17:41.490Z,31.53
2019-01-15T16:23:10.840Z,30.17
2019-01-15T16:28:31.315Z,34.70
2019-01-15T16:33:53.796Z,24.67
2019-01-15T16:39:17.316Z,32.27
2019-01-15T16:44:48.857Z,29.03
2019-01-15T16:50:30.415Z,29.30
2019-01-15T16:55:52.910Z,28.90
2019-01-15T17:01:28.622Z,24.30
2019-01-15T17:06:55.782Z,21.63
2019-01-15T17:12:17.080Z,20.63
2019-01-15T17:17:39.696Z,21.50
2019-01-15T17:22:54.191Z,22.03
2019-01-15T17:28:12.583Z,23.77
2019-01-15T17:33:55.011Z,18.87
2019-01-15T17:39:22.952Z,23.83
2019-01-15T17:44:37.144Z,16.67
2019-01-15T17:49:52.453Z,17.13
2019-01-15T17:55:28.410Z,17.97
2019-01-15T18:00:50.964Z,16.07
2019-01-15T18:06:08.117Z,17.00
2019-01-15T18:11:47.082Z,15.67
2019-01-15T18:17:03.365Z,16.90
2019-01-15T18:22:23.028Z,17.10
2019-01-15T18:27:39.569Z,15.60
2019-01-15T18:32:57.417Z,17.57
2019-01-15T18:38:13.651Z,15.70
2019-01-15T18:43:30.140Z,15.60
2019-01-15T18:49:09.245Z,17.13
2019-01-15T18:54:39.525Z,18.37
2019-01-15T19:00:01.177Z,16.57
2019-01-15T19:05:19.420Z,13.73
2019-01-15T19:10:42.026Z,16.40
2019-01-15T19:16:04.622Z,17.43
2019-01-15T19:21:23.764Z,14.63
2019-01-15T19:26:55.397Z,14.63
2019-01-15T19:32:25.040Z,14.30
2019-01-15T19:37:48.729Z,19.10
2019-01-15T19:43:14.323Z,19.17
2019-01-15T19:48:43.275Z,15.87
2019-01-15T19:54:22.507Z,13.80
2019-01-15T19:59:47.335Z,19.20
2019-01-15T20:05:17.151Z,19.87
2019-01-15T20:10:53.123Z,18.93
2019-01-15T20:16:16.144Z,18.83
2019-01-15T20:21:38.387Z,19.23
2019-01-15T20:27:17.408Z,18.17
2019-01-15T20:32:42.018Z,16.63
2019-01-15T20:38:04.626Z,15.10
2019-01-15T20:43:24.674Z,15.13
2019-01-15T20:48:47.543Z,16.57
2019-01-15T20:54:10.650Z,17.70
2019-01-15T20:59:43.607Z,18.60
2019-01-15T21:05:01.880Z,15.23
2019-01-15T21:10:20.033Z,16.40
2019-01-15T21:15:36.675Z,13.40
2019-01-15T21:21:01.510Z,10.53
2019-01-15T21:26:30.405Z,12.83
2019-01-15T21:32:09.568Z,10.13
2019-01-15T21:37:33.352Z,10.70
2019-01-15T21:42:56.394Z,11.00
2019-01-15T21:48:18.828Z,9.97
2019-01-15T21:53:51.563Z,12.67
2019-01-15T21:59:14.414Z,14.23
2019-01-15T22:04:36.956Z,10.77
2019-01-15T22:10:10.820Z,12.33
2019-01-15T22:15:33.867Z,13.87
2019-01-15T22:20:55.918Z,15.33
2019-01-15T22:26:11.611Z,16.10
2019-01-15T22:31:29.172Z,15.37
2019-01-15T22:36:51.832Z,16.93
2019-01-15T22:42:14.189Z,15.23
2019-01-15T22:47:54.879Z,15.80
2019-01-15T22:53:08.453Z,17.37
2019-01-15T22:58:32.323Z,18.80
2019-01-15T23:04:08.632Z,18.27
2019-01-15T23:09:37.717Z,18.37
2019-01-15T23:14:57.305Z,20.07
2019-01-15T23:20:30.095Z,18.17
2019-01-15T23:25:52.553Z,18.73
2019-01-15T23:31:15.393Z,15.37
2019-01-15T23:36:41.969Z,15.80
2019-01-15T23:42:09.317Z,18.53
2019-01-15T23:47:31.711Z,16.83
2019-01-15T23:52:50.276Z,13.93
2019-01-15T23:58:18.376Z,13.63
